createdAt,value
2018-02-18T00:00:39.065Z,30.90
2018-02-18T00:05:33.522Z,32.20
2018-02-18T00:10:28.711Z,28.67
2018-02-18T00:15:24.118Z,25.10
2018-02-18T00:20:18.617Z,27.80
2018-02-18T00:25:12.972Z,25.53
2018-02-18T00:30:07.800Z,27.77
2018-02-18T00:35:03.166Z,30.70
2018-02-18T00:39:57.661Z,26.60
2018-02-18T00:44:51.979Z,31.97
2018-02-18T00:49:46.549Z,25.80
2018-02-18T00:54:41.990Z,25.53
2018-02-18T00:59:36.413Z,25.23
2018-02-18T01:04:30.711Z,25.97
2018-02-18T01:09:25.073Z,25.73
2018-02-18T01:14:20.238Z,30.93
2018-02-18T01:19:14.537Z,24.80
2018-02-18T01:24:08.825Z,22.77
2018-02-18T01:29:03.134Z,29.47
2018-02-18T01:33:57.497Z,28.97
2018-02-18T01:38:52.505Z,25.97
2018-02-18T01:43:47.054Z,28.40
2018-02-18T01:48:41.408Z,26.03
2018-02-18T01:53:37.222Z,26.63
2018-02-18T01:58:31.509Z,25.53
2018-02-18T02:03:25.798Z,27.00
2018-02-18T02:08:20.118Z,24.83
2018-02-18T02:13:14.393Z,25.93
2018-02-18T02:18:08.668Z,26.93
2018-02-18T02:23:03.855Z,29.73
2018-02-18T02:27:58.133Z,27.37
2018-02-18T02:32:52.404Z,25.03
2018-02-18T02:37:46.521Z,26.97
2018-02-18T02:42:40.801Z,29.20
2018-02-18T02:47:35.091Z,30.23
2018-02-18T02:52:30.146Z,29.07
2018-02-18T02:57:24.436Z,23.67
2018-02-18T03:02:18.740Z,26.30
2018-02-18T03:07:13.039Z,29.03
2018-02-18T03:12:07.323Z,25.50
2018-02-18T03:17:01.605Z,26.27
2018-02-18T03:21:56.662Z,25.47
2018-02-18T03:26:50.940Z,23.73
2018-02-18T03:31:45.220Z,27.10
2018-02-18T03:36:41.103Z,24.50
2018-02-18T03:41:35.402Z,27.00
2018-02-18T03:46:29.883Z,24.10
2018-02-18T03:51:24.156Z,31.50
2018-02-18T03:56:19.205Z,26.20
2018-02-18T04:01:13.626Z,25.20
2018-02-18T04:06:07.985Z,23.83
2018-02-18T04:11:03.154Z,26.30
2018-02-18T04:15:57.428Z,24.13
2018-02-18T04:20:52.037Z,26.63
2018-02-18T04:25:46.299Z,26.90
2018-02-18T04:30:40.795Z,33.90
2018-02-18T04:35:35.064Z,29.60
2018-02-18T04:40:29.345Z,30.67
2018-02-18T04:45:23.667Z,26.67
2018-02-18T04:50:17.979Z,29.20
2018-02-18T04:55:12.285Z,29.50
2018-02-18T05:00:06.593Z,30.13
2018-02-18T05:05:00.883Z,35.57
2018-02-18T05:09:55.173Z,31.83
2018-02-18T05:14:49.457Z,28.37
2018-02-18T05:19:43.973Z,33.97
2018-02-18T05:24:38.306Z,34.73
2018-02-18T05:29:32.584Z,35.47
2018-02-18T05:34:26.636Z,32.47
2018-02-18T05:39:21.695Z,33.50
2018-02-18T05:44:18.444Z,30.10
2018-02-18T05:49:12.740Z,31.47
2018-02-18T05:54:07.052Z,34.83
2018-02-18T05:59:01.615Z,34.77
2018-02-18T06:03:56.778Z,36.87
2018-02-18T06:08:51.277Z,41.37
2018-02-18T06:13:45.693Z,44.13
2018-02-18T06:18:39.981Z,40.27
2018-02-18T06:23:34.384Z,36.47
2018-02-18T06:28:28.811Z,35.07
2018-02-18T06:33:23.247Z,38.93
2018-02-18T06:38:18.295Z,41.33
2018-02-18T06:43:12.581Z,45.53
2018-02-18T06:48:07.651Z,39.70
2018-02-18T06:53:01.937Z,40.17
2018-02-18T06:57:56.223Z,38.67
2018-02-18T07:02:50.524Z,38.80
2018-02-18T07:07:45.057Z,33.53
2018-02-18T07:12:39.510Z,41.03
2018-02-18T07:17:34.582Z,37.20
2018-02-18T07:22:28.874Z,40.53
2018-02-18T07:27:23.310Z,38.63
2018-02-18T07:32:17.603Z,39.90
2018-02-18T07:37:11.885Z,37.77
2018-02-18T07:42:07.912Z,37.03
2018-02-18T07:47:02.210Z,39.10
2018-02-18T07:51:56.511Z,30.10
2018-02-18T07:56:50.802Z,32.57
2018-02-18T08:01:45.243Z,32.03
2018-02-18T08:06:39.540Z,29.73
2018-02-18T08:11:34.023Z,27.57
2018-02-18T08:16:28.311Z,28.03
2018-02-18T08:21:22.594Z,27.97
2018-02-18T08:26:16.899Z,26.33
2018-02-18T08:31:11.185Z,21.60
2018-02-18T08:36:06.512Z,28.53
2018-02-18T08:41:00.863Z,23.50
2018-02-18T08:45:55.163Z,27.57
2018-02-18T08:50:49.492Z,26.33
2018-02-18T08:55:43.997Z,26.83
2018-02-18T09:00:39.271Z,26.63
2018-02-18T09:05:33.667Z,26.87
2018-02-18T09:10:28.855Z,30.77
2018-02-18T09:15:23.969Z,27.47
2018-02-18T09:20:19.137Z,26.53
2018-02-18T09:25:13.427Z,23.70
2018-02-18T09:30:08.429Z,28.33
2018-02-18T09:35:03.136Z,24.07
2018-02-18T09:39:58.213Z,27.53
2018-02-18T09:44:52.891Z,24.80
2018-02-18T09:49:47.751Z,27.20
2018-02-18T09:54:42.612Z,24.37
2018-02-18T09:59:36.967Z,25.57
2018-02-18T10:04:31.485Z,25.13
2018-02-18T10:09:26.324Z,26.27
2018-02-18T10:14:20.674Z,29.53
2018-02-18T10:19:15.916Z,28.90
2018-02-18T10:24:10.177Z,36.43
2018-02-18T10:29:04.481Z,33.83
2018-02-18T10:33:58.877Z,32.50
2018-02-18T10:38:53.224Z,33.63
2018-02-18T10:43:47.699Z,30.70
2018-02-18T10:48:42.042Z,35.27
2018-02-18T10:53:37.230Z,35.83
2018-02-18T10:58:31.745Z,33.87
2018-02-18T11:03:26.681Z,29.37
2018-02-18T11:08:21.739Z,39.73
2018-02-18T11:13:16.215Z,33.60
2018-02-18T11:18:10.658Z,31.17
2018-02-18T11:23:05.034Z,26.70
2018-02-18T11:27:59.848Z,34.70
2018-02-18T11:32:54.165Z,34.10
2018-02-18T11:37:48.786Z,31.00
2018-02-18T11:42:43.223Z,29.70
2018-02-18T11:47:37.702Z,25.60
2018-02-18T11:52:32.837Z,23.07
2018-02-18T11:57:27.476Z,30.00
2018-02-18T12:02:21.873Z,26.77
2018-02-18T12:07:17.110Z,22.33
2018-02-18T12:12:11.497Z,23.13
2018-02-18T12:17:05.834Z,22.40
2018-02-18T12:22:00.378Z,19.33
2018-02-18T12:26:54.694Z,23.50
2018-02-18T12:31:49.576Z,18.53
2018-02-18T12:36:43.880Z,19.80
2018-02-18T12:41:38.228Z,18.80
2018-02-18T12:46:32.557Z,21.37
2018-02-18T12:51:27.286Z,23.07
2018-02-18T12:56:21.577Z,19.20
2018-02-18T13:01:15.900Z,23.80
2018-02-18T13:06:10.330Z,18.20
2018-02-18T13:11:04.949Z,21.97
2018-02-18T13:15:59.551Z,19.50
2018-02-18T13:20:54.830Z,23.23
2018-02-18T13:25:49.361Z,18.70
2018-02-18T13:30:43.621Z,16.20
2018-02-18T13:35:37.763Z,20.20
2018-02-18T13:40:32.070Z,20.40
2018-02-18T13:45:26.561Z,20.23
2018-02-18T13:50:20.865Z,16.30
2018-02-18T13:55:15.147Z,14.80
2018-02-18T14:00:09.425Z,17.30
2018-02-18T14:05:03.712Z,17.17
2018-02-18T14:09:58.880Z,24.10
2018-02-18T14:14:53.261Z,17.27
2018-02-18T14:19:47.755Z,18.10
2018-02-18T14:24:41.904Z,22.17
2018-02-18T14:29:36.268Z,21.17
2018-02-18T14:34:31.630Z,17.62
2018-02-18T14:39:26.023Z,20.90
2018-02-18T14:44:37.329Z,23.13
2018-02-18T14:49:48.776Z,18.83
2018-02-18T15:10:43.439Z,15.93
2018-02-18T15:15:37.828Z,17.67
2018-02-18T15:20:32.235Z,16.27
2018-02-18T15:25:26.535Z,15.23
2018-02-18T15:30:20.804Z,17.13
2018-02-18T15:35:15.110Z,14.23
2018-02-18T15:40:09.409Z,17.23
2018-02-18T15:45:03.855Z,15.07
2018-02-18T15:49:58.154Z,19.10
2018-02-18T15:54:52.743Z,17.47
2018-02-18T15:59:47.115Z,21.30
2018-02-18T16:04:42.165Z,20.57
2018-02-18T16:09:36.581Z,20.80
2018-02-18T16:14:31.896Z,23.03
2018-02-18T16:19:26.154Z,26.53
2018-02-18T16:24:21.418Z,23.70
2018-02-18T16:29:15.828Z,25.10
2018-02-18T16:34:10.131Z,25.23
2018-02-18T16:39:04.187Z,30.17
2018-02-18T16:43:58.482Z,30.80
2018-02-18T16:48:53.560Z,29.60
2018-02-18T16:53:47.989Z,32.90
2018-02-18T16:58:43.561Z,30.13
2018-02-18T17:03:37.866Z,30.97
2018-02-18T17:08:32.173Z,25.37
2018-02-18T17:13:26.473Z,31.60
2018-02-18T17:18:21.272Z,29.33
2018-02-18T17:23:17.786Z,28.43
2018-02-18T17:28:12.086Z,27.63
2018-02-18T17:33:06.362Z,29.30
2018-02-18T17:38:00.653Z,31.00
2018-02-18T17:42:54.955Z,31.83
2018-02-18T17:47:49.264Z,32.63
2018-02-18T17:52:43.689Z,28.47
2018-02-18T17:57:38.054Z,31.03
2018-02-18T18:02:32.389Z,33.13
2018-02-18T18:07:26.698Z,30.50
2018-02-18T18:12:21.404Z,36.90
2018-02-18T18:17:15.715Z,30.97
2018-02-18T18:22:10.765Z,35.17
2018-02-18T18:27:04.843Z,32.33
2018-02-18T18:31:59.717Z,32.97
2018-02-18T18:36:53.983Z,34.03
2018-02-18T18:41:48.285Z,43.70
2018-02-18T18:46:42.929Z,37.17
2018-02-18T18:51:37.243Z,40.37
2018-02-18T18:56:32.325Z,35.70
2018-02-18T19:01:26.866Z,39.70
2018-02-18T19:06:21.205Z,41.17
2018-02-18T19:11:15.482Z,35.83
2018-02-18T19:16:10.580Z,38.30
2018-02-18T19:21:05.116Z,35.93
2018-02-18T19:26:00.179Z,38.63
2018-02-18T19:30:54.501Z,34.73
2018-02-18T19:35:48.799Z,38.73
2018-02-18T19:40:43.230Z,39.30
2018-02-18T19:45:37.515Z,37.23
2018-02-18T19:50:31.822Z,33.27
2018-02-18T19:55:26.901Z,36.20
2018-02-18T20:00:21.201Z,34.43
2018-02-18T20:05:16.547Z,39.03
2018-02-18T20:10:10.869Z,38.53
2018-02-18T20:15:05.327Z,44.23
2018-02-18T20:19:59.711Z,37.87
2018-02-18T20:24:54.026Z,40.87
2018-02-18T20:29:48.325Z,39.17
2018-02-18T20:34:42.850Z,37.13
2018-02-18T20:39:37.165Z,34.63
2018-02-18T20:44:31.648Z,37.57
2018-02-18T20:49:25.967Z,39.60
2018-02-18T20:54:20.272Z,35.80
2018-02-18T20:59:14.574Z,37.77
2018-02-18T21:04:09.059Z,36.97
2018-02-18T21:09:03.972Z,38.63
2018-02-18T21:13:58.281Z,41.67
2018-02-18T21:18:52.573Z,36.47
2018-02-18T21:23:46.873Z,44.50
2018-02-18T21:28:41.183Z,37.33
2018-02-18T21:33:35.582Z,39.37
2018-02-18T21:38:30.181Z,34.10
2018-02-18T21:43:24.633Z,34.53
2018-02-18T21:48:19.686Z,41.47
2018-02-18T21:53:13.964Z,38.07
2018-02-18T21:58:10.226Z,37.83
2018-02-18T22:03:07.014Z,41.17
2018-02-18T22:08:01.291Z,43.23
2018-02-18T22:12:55.710Z,40.57
2018-02-18T22:17:50.127Z,45.67
2018-02-18T22:22:44.646Z,38.07
2018-02-18T22:27:38.966Z,40.83
2018-02-18T22:32:34.002Z,41.00
2018-02-18T22:37:29.083Z,39.23
2018-02-18T22:42:23.911Z,39.93
2018-02-18T22:47:19.065Z,44.97
2018-02-18T22:52:14.127Z,42.33
2018-02-18T22:57:08.726Z,44.20
2018-02-18T23:02:03.018Z,44.20
2018-02-18T23:07:03.162Z,42.70
2018-02-18T23:11:57.494Z,46.00
2018-02-18T23:16:51.770Z,49.60
2018-02-18T23:21:46.213Z,47.23
2018-02-18T23:26:40.508Z,47.40
2018-02-18T23:31:34.957Z,45.10
2018-02-18T23:36:29.297Z,48.37
2018-02-18T23:41:24.008Z,43.77
2018-02-18T23:46:18.301Z,48.00
2018-02-18T23:51:13.512Z,52.60
2018-02-18T23:56:07.929Z,49.77
